createdAt,value
2018-11-21T00:01:44.869Z,18.93
2018-11-21T00:04:13.334Z,17.57
2018-11-21T00:06:41.349Z,20.50
2018-11-21T00:09:10.700Z,19.33
2018-11-21T00:11:38.686Z,23.20
2018-11-21T00:14:07.627Z,19.53
2018-11-21T00:16:37.958Z,17.57
2018-11-21T00:19:06.479Z,19.03
2018-11-21T00:21:34.932Z,17.90
2018-11-21T00:24:03.156Z,18.37
2018-11-21T00:26:31.519Z,18.10
2018-11-21T00:29:00.178Z,18.67
2018-11-21T00:31:28.086Z,17.80
2018-11-21T00:33:56.355Z,16.60
2018-11-21T00:36:24.548Z,17.70
2018-11-21T00:38:52.790Z,17.37
2018-11-21T00:41:21.128Z,18.10
2018-11-21T00:43:49.820Z,19.47
2018-11-21T00:46:17.784Z,18.60
2018-11-21T00:48:46.418Z,18.23
2018-11-21T00:51:14.643Z,18.30
2018-11-21T00:53:42.846Z,19.90
2018-11-21T00:56:11.109Z,18.83
2018-11-21T00:58:39.712Z,17.23
2018-11-21T01:01:08.280Z,17.70
2018-11-21T01:03:36.572Z,18.97
2018-11-21T01:06:07.566Z,17.67
2018-11-21T01:08:35.826Z,16.87
2018-11-21T01:11:06.463Z,17.33
2018-11-21T01:13:34.914Z,17.50
2018-11-21T01:16:05.280Z,16.23
2018-11-21T01:18:33.876Z,17.43
2018-11-21T01:21:01.959Z,16.07
2018-11-21T01:23:30.222Z,15.77
2018-11-21T01:25:58.537Z,17.40
2018-11-21T01:28:27.105Z,19.00
2018-11-21T01:30:55.379Z,18.07
2018-11-21T01:33:23.891Z,16.93
2018-11-21T01:35:52.109Z,17.87
2018-11-21T01:38:20.423Z,18.80
2018-11-21T01:40:48.724Z,18.43
2018-11-21T01:43:16.960Z,18.87
2018-11-21T01:45:45.258Z,19.57
2018-11-21T01:48:13.942Z,17.87
2018-11-21T01:50:42.297Z,19.30
2018-11-21T01:53:10.941Z,18.40
2018-11-21T01:55:39.227Z,20.00
2018-11-21T01:58:07.875Z,16.97
2018-11-21T02:00:36.640Z,17.57
2018-11-21T02:03:04.572Z,16.27
2018-11-21T02:05:33.328Z,16.60
2018-11-21T02:08:01.787Z,17.07
2018-11-21T02:10:30.074Z,18.23
2018-11-21T02:12:58.738Z,17.90
2018-11-21T02:15:27.416Z,17.53
2018-11-21T02:17:55.712Z,18.17
2018-11-21T02:20:26.468Z,18.47
2018-11-21T02:22:54.745Z,17.70
2018-11-21T02:25:23.408Z,18.40
2018-11-21T02:27:51.562Z,22.83
2018-11-21T02:30:19.990Z,23.00
2018-11-21T02:32:48.334Z,21.87
2018-11-21T02:35:18.987Z,21.00
2018-11-21T02:37:47.665Z,19.10
2018-11-21T02:40:15.897Z,22.73
2018-11-21T02:42:44.111Z,19.37
2018-11-21T02:45:12.495Z,19.47
2018-11-21T02:47:42.311Z,18.67
2018-11-21T02:50:10.718Z,18.30
2018-11-21T02:52:39.221Z,19.93
2018-11-21T02:55:07.840Z,20.87
2018-11-21T02:57:36.610Z,18.60
2018-11-21T03:00:12.021Z,19.23
2018-11-21T03:02:40.268Z,17.80
2018-11-21T03:05:08.577Z,17.30
2018-11-21T03:07:37.179Z,17.00
2018-11-21T03:10:06.582Z,18.67
2018-11-21T03:12:35.251Z,15.87
2018-11-21T03:15:03.308Z,18.60
2018-11-21T03:17:31.795Z,19.43
2018-11-21T03:20:00.000Z,18.57
2018-11-21T03:22:28.598Z,18.90
2018-11-21T03:24:57.028Z,17.73
2018-11-21T03:27:25.307Z,17.70
2018-11-21T03:29:53.524Z,19.77
2018-11-21T03:32:21.816Z,19.17
2018-11-21T03:34:50.517Z,19.50
2018-11-21T03:37:18.810Z,17.80
2018-11-21T03:39:47.305Z,16.90
2018-11-21T03:42:15.773Z,16.83
2018-11-21T03:44:43.853Z,16.97
2018-11-21T03:47:12.704Z,17.73
2018-11-21T03:49:41.442Z,17.13
2018-11-21T03:52:09.933Z,18.30
2018-11-21T03:54:38.612Z,15.50
2018-11-21T03:57:07.037Z,17.23
2018-11-21T03:59:35.477Z,17.97
2018-11-21T04:02:03.747Z,18.87
2018-11-21T04:04:37.035Z,17.17
2018-11-21T04:07:05.801Z,18.53
2018-11-21T04:09:34.413Z,17.37
2018-11-21T04:12:03.107Z,17.93
2018-11-21T04:14:31.853Z,17.13
2018-11-21T04:17:00.442Z,15.60
2018-11-21T04:19:29.100Z,18.03
2018-11-21T04:21:57.094Z,18.23
2018-11-21T04:24:25.689Z,17.83
2018-11-21T04:26:53.942Z,18.43
2018-11-21T04:29:22.185Z,17.50
2018-11-21T04:31:50.647Z,16.97
2018-11-21T04:34:19.603Z,16.27
2018-11-21T04:36:47.850Z,14.63
2018-11-21T04:39:16.305Z,14.93
2018-11-21T04:41:44.787Z,15.83
2018-11-21T04:44:14.753Z,14.60
2018-11-21T04:46:43.045Z,16.87
2018-11-21T04:49:11.316Z,17.00
2018-11-21T04:51:40.407Z,21.17
2018-11-21T04:54:09.023Z,19.30
2018-11-21T04:56:37.233Z,16.70
2018-11-21T04:59:05.939Z,16.53
2018-11-21T05:01:34.270Z,15.10
2018-11-21T05:04:02.944Z,16.20
2018-11-21T05:06:31.538Z,17.13
2018-11-21T05:08:59.958Z,20.37
2018-11-21T05:11:28.189Z,21.10
2018-11-21T05:13:56.743Z,18.07
2018-11-21T05:16:25.163Z,17.43
2018-11-21T05:18:53.576Z,17.13
2018-11-21T05:21:21.687Z,19.33
2018-11-21T05:23:49.943Z,20.10
2018-11-21T05:26:18.181Z,18.97
2018-11-21T05:28:46.508Z,25.80
2018-11-21T05:31:14.993Z,24.00
2018-11-21T05:33:43.670Z,20.20
2018-11-21T05:36:11.751Z,18.30
2018-11-21T05:38:40.696Z,29.10
2018-11-21T05:41:09.374Z,24.97
2018-11-21T05:43:38.032Z,22.93
2018-11-21T05:46:06.237Z,22.43
2018-11-21T05:48:34.544Z,21.40
2018-11-21T05:51:03.215Z,18.97
2018-11-21T05:53:31.323Z,18.27
2018-11-21T05:55:59.646Z,26.23
2018-11-21T05:58:27.888Z,22.27
2018-11-21T06:00:56.683Z,19.80
2018-11-21T06:03:25.057Z,22.03
2018-11-21T06:05:53.474Z,21.43
2018-11-21T06:08:21.914Z,19.97
2018-11-21T06:10:50.160Z,22.03
2018-11-21T06:13:18.361Z,23.20
2018-11-21T06:15:46.730Z,27.67
2018-11-21T06:18:14.881Z,43.37
2018-11-21T06:20:43.624Z,38.03
2018-11-21T06:23:11.853Z,32.87
2018-11-21T06:25:40.218Z,29.93
2018-11-21T06:28:08.615Z,34.00
2018-11-21T06:30:37.115Z,30.63
2018-11-21T06:33:06.013Z,30.90
2018-11-21T06:35:34.222Z,33.27
2018-11-21T06:38:02.401Z,35.47
2018-11-21T06:40:30.622Z,34.90
2018-11-21T06:42:59.611Z,33.83
2018-11-21T06:45:28.815Z,34.27
2018-11-21T06:47:57.244Z,31.97
2018-11-21T06:50:25.592Z,32.57
2018-11-21T06:52:55.147Z,26.23
2018-11-21T06:55:23.390Z,27.93
2018-11-21T06:57:51.640Z,33.73
2018-11-21T07:00:19.900Z,28.83
2018-11-21T07:02:48.595Z,27.67
2018-11-21T07:05:17.317Z,25.87
2018-11-21T07:07:46.278Z,28.47
2018-11-21T07:10:15.716Z,26.80
2018-11-21T07:12:45.235Z,28.23
2018-11-21T07:15:13.989Z,28.50
2018-11-21T07:17:42.680Z,23.67
2018-11-21T07:20:12.267Z,24.50
2018-11-21T07:22:40.934Z,24.57
2018-11-21T07:25:12.549Z,21.03
2018-11-21T07:27:40.957Z,24.27
2018-11-21T07:30:11.560Z,25.53
2018-11-21T07:32:39.963Z,41.83
2018-11-21T07:35:08.493Z,50.77
2018-11-21T07:37:37.345Z,47.37
2018-11-21T07:40:07.454Z,40.30
2018-11-21T07:42:35.847Z,41.00
2018-11-21T07:45:04.044Z,38.40
2018-11-21T07:47:32.440Z,27.37
2018-11-21T07:50:00.823Z,24.63
2018-11-21T07:52:29.058Z,23.63
2018-11-21T07:54:57.276Z,24.83
2018-11-21T07:57:31.443Z,27.13
2018-11-21T08:01:05.731Z,26.67
2018-11-21T08:03:56.636Z,25.27
2018-11-21T08:06:37.511Z,22.27
2018-11-21T08:09:26.394Z,25.97
2018-11-21T08:12:13.797Z,26.13
2018-11-21T08:15:19.405Z,29.37
2018-11-21T08:18:00.722Z,71.73
2018-11-21T08:20:40.715Z,31.80
2018-11-21T08:23:27.293Z,28.30
2018-11-21T08:26:09.609Z,26.70
2018-11-21T08:28:38.124Z,25.90
2018-11-21T08:31:06.482Z,25.23
2018-11-21T08:33:34.705Z,26.53
2018-11-21T08:36:02.922Z,24.93
2018-11-21T08:38:31.249Z,25.27
2018-11-21T08:40:59.726Z,25.50
2018-11-21T08:43:28.445Z,23.83
2018-11-21T08:45:56.839Z,24.73
2018-11-21T08:48:25.285Z,25.63
2018-11-21T08:50:53.560Z,25.73
2018-11-21T08:53:21.818Z,25.43
2018-11-21T08:55:50.025Z,23.97
2018-11-21T08:58:18.259Z,27.37
2018-11-21T09:00:47.181Z,36.20
2018-11-21T09:03:15.502Z,33.30
2018-11-21T09:05:43.977Z,26.27
2018-11-21T09:08:12.205Z,27.90
2018-11-21T09:10:41.024Z,27.17
2018-11-21T09:13:09.302Z,24.03
2018-11-21T09:15:37.545Z,23.20
2018-11-21T09:18:05.757Z,23.87
2018-11-21T09:20:33.960Z,23.07
2018-11-21T09:23:02.154Z,22.57
2018-11-21T09:25:30.504Z,23.23
2018-11-21T09:27:59.085Z,22.60
2018-11-21T09:30:27.362Z,23.17
2018-11-21T09:32:56.937Z,20.43
2018-11-21T09:35:25.183Z,23.00
2018-11-21T09:37:54.013Z,23.93
2018-11-21T09:40:23.195Z,24.33
2018-11-21T09:42:53.010Z,21.40
2018-11-21T09:45:22.094Z,22.23
2018-11-21T09:47:50.320Z,21.53
2018-11-21T09:50:20.597Z,22.10
2018-11-21T09:52:50.415Z,22.43
2018-11-21T09:55:17.461Z,21.77
2018-11-21T09:57:45.738Z,21.50
2018-11-21T10:00:51.994Z,21.47
2018-11-21T10:03:22.212Z,23.93
2018-11-21T10:05:53.486Z,23.80
2018-11-21T10:08:50.019Z,21.57
2018-11-21T10:11:18.484Z,21.93
2018-11-21T10:13:46.722Z,22.37
2018-11-21T10:16:15.116Z,20.47
2018-11-21T10:18:44.637Z,21.50
2018-11-21T10:21:17.019Z,22.83
2018-11-21T10:23:45.310Z,19.57
2018-11-21T10:26:13.621Z,21.83
2018-11-21T10:28:42.667Z,21.60
2018-11-21T10:31:10.861Z,20.53
2018-11-21T10:33:39.041Z,20.33
2018-11-21T10:36:07.548Z,21.50
2018-11-21T10:38:35.759Z,22.80
2018-11-21T10:41:04.271Z,23.20
2018-11-21T10:43:33.417Z,23.03
2018-11-21T10:46:01.678Z,21.83
2018-11-21T10:48:29.895Z,21.13
2018-11-21T10:50:58.136Z,21.77
2018-11-21T10:53:26.667Z,20.37
2018-11-21T10:55:54.944Z,20.10
2018-11-21T10:58:23.186Z,23.40
2018-11-21T11:01:09.052Z,22.57
2018-11-21T11:03:39.950Z,22.87
2018-11-21T11:06:22.322Z,21.23
2018-11-21T11:09:08.600Z,24.00
2018-11-21T11:11:54.755Z,20.80
2018-11-21T11:14:47.715Z,21.73
2018-11-21T11:17:39.840Z,22.03
2018-11-21T11:20:27.693Z,23.00
2018-11-21T11:23:15.092Z,27.03
2018-11-21T11:25:57.440Z,23.57
2018-11-21T11:28:44.865Z,21.40
2018-11-21T11:31:29.441Z,21.50
2018-11-21T11:34:18.444Z,21.27
2018-11-21T11:37:00.152Z,20.37
2018-11-21T11:39:47.777Z,22.43
2018-11-21T11:42:33.655Z,21.50
2018-11-21T11:45:19.931Z,22.47
2018-11-21T11:48:06.063Z,22.23
2018-11-21T11:50:43.033Z,21.80
2018-11-21T11:53:30.500Z,21.37
2018-11-21T11:56:17.893Z,22.20
2018-11-21T11:59:00.792Z,22.03
2018-11-21T12:01:50.868Z,20.93
2018-11-21T12:04:36.755Z,21.00
2018-11-21T12:07:24.033Z,22.33
2018-11-21T12:10:08.067Z,21.27
2018-11-21T12:13:04.447Z,25.43
2018-11-21T12:15:50.611Z,22.40
2018-11-21T12:18:40.582Z,22.90
2018-11-21T12:21:30.622Z,24.47
2018-11-21T12:24:23.539Z,21.97
2018-11-21T12:27:09.743Z,22.27
2018-11-21T12:29:56.073Z,21.07
2018-11-21T12:32:39.419Z,20.67
2018-11-21T12:35:25.981Z,20.37
2018-11-21T12:38:28.560Z,21.37
2018-11-21T12:41:14.932Z,22.03
2018-11-21T12:44:01.086Z,21.93
2018-11-21T12:46:49.305Z,24.73
2018-11-21T12:49:42.731Z,24.40
2018-11-21T12:52:32.814Z,22.03
2018-11-21T12:55:20.921Z,22.83
2018-11-21T12:58:10.991Z,22.17
2018-11-21T13:00:57.529Z,23.73
2018-11-21T13:03:43.524Z,25.23
2018-11-21T13:06:31.100Z,21.27
2018-11-21T13:09:24.316Z,23.23
2018-11-21T13:12:08.683Z,22.13
2018-11-21T13:14:44.620Z,23.23
2018-11-21T13:17:35.010Z,21.20
2018-11-21T13:20:21.258Z,22.13
2018-11-21T13:22:55.452Z,21.57
2018-11-21T13:25:41.455Z,23.03
2018-11-21T13:28:23.344Z,21.27
2018-11-21T13:31:10.746Z,21.00
2018-11-21T13:34:01.512Z,23.70
2018-11-21T13:36:45.566Z,20.83
2018-11-21T13:39:43.075Z,20.23
2018-11-21T13:42:30.662Z,27.87
2018-11-21T13:45:14.606Z,24.20
2018-11-21T13:48:05.632Z,22.80
2018-11-21T13:50:52.042Z,25.57
2018-11-21T13:53:38.336Z,23.63
2018-11-21T13:56:06.716Z,23.13
2018-11-21T13:58:34.984Z,23.63
2018-11-21T14:01:03.210Z,24.93
2018-11-21T14:03:31.738Z,23.67
2018-11-21T14:06:00.305Z,21.53
2018-11-21T14:08:28.708Z,21.23
2018-11-21T14:10:56.953Z,22.20
2018-11-21T14:13:25.180Z,22.97
2018-11-21T14:15:53.407Z,21.43
2018-11-21T14:18:21.628Z,20.63
2018-11-21T14:20:49.975Z,20.80
2018-11-21T14:23:18.336Z,20.77
2018-11-21T14:25:46.641Z,21.53
2018-11-21T14:28:14.878Z,20.63
2018-11-21T14:30:43.297Z,20.10
2018-11-21T14:33:11.700Z,22.63
2018-11-21T14:35:39.896Z,23.17
2018-11-21T14:38:08.121Z,23.17
2018-11-21T14:40:36.354Z,21.50
2018-11-21T14:43:04.726Z,21.60
2018-11-21T14:45:32.964Z,21.43
2018-11-21T14:48:01.223Z,21.77
2018-11-21T14:50:39.052Z,21.10
2018-11-21T14:53:02.593Z,24.70
2018-11-21T14:55:30.841Z,25.33
2018-11-21T14:57:59.242Z,22.03
2018-11-21T15:00:27.444Z,23.07
2018-11-21T15:02:55.695Z,24.07
2018-11-21T15:05:23.906Z,22.03
2018-11-21T15:07:52.105Z,26.00
2018-11-21T15:10:20.286Z,24.97
2018-11-21T15:12:48.492Z,23.77
2018-11-21T15:15:18.349Z,28.07
2018-11-21T15:17:46.667Z,26.97
2018-11-21T15:20:16.643Z,24.90
2018-11-21T15:22:45.197Z,24.63
2018-11-21T15:25:15.203Z,24.57
2018-11-21T15:27:43.540Z,24.57
2018-11-21T15:30:17.732Z,27.43
2018-11-21T15:32:46.017Z,23.80
2018-11-21T15:35:14.336Z,23.27
2018-11-21T15:37:43.255Z,25.27
2018-11-21T15:40:13.797Z,23.97
2018-11-21T15:42:42.139Z,28.97
2018-11-21T15:45:12.909Z,33.27
2018-11-21T15:47:41.471Z,24.40
2018-11-21T15:50:11.755Z,25.67
2018-11-21T15:52:40.581Z,24.47
2018-11-21T15:55:10.153Z,44.13
2018-11-21T15:57:38.685Z,28.47
2018-11-21T16:00:11.620Z,28.83
2018-11-21T16:02:40.958Z,32.77
2018-11-21T16:05:09.245Z,39.67
2018-11-21T16:07:38.075Z,29.90
2018-11-21T16:10:10.093Z,30.03
2018-11-21T16:12:37.121Z,24.17
2018-11-21T16:15:08.801Z,26.93
2018-11-21T16:17:39.362Z,26.77
2018-11-21T16:20:11.250Z,24.30
2018-11-21T16:22:39.605Z,24.53
2018-11-21T16:25:09.796Z,25.60
2018-11-21T16:27:38.531Z,24.80
2018-11-21T16:30:09.931Z,27.93
2018-11-21T16:32:38.302Z,24.47
2018-11-21T16:35:08.496Z,24.90
2018-11-21T16:37:35.690Z,25.17
2018-11-21T16:40:05.166Z,25.33
2018-11-21T16:42:33.784Z,26.27
2018-11-21T16:45:02.372Z,30.83
2018-11-21T16:47:30.912Z,24.90
2018-11-21T16:49:59.137Z,22.40
2018-11-21T16:52:27.350Z,24.43
2018-11-21T16:54:55.760Z,25.53
2018-11-21T16:57:24.147Z,23.10
2018-11-21T16:59:52.405Z,25.00
2018-11-21T17:02:20.637Z,24.17
2018-11-21T17:04:48.839Z,22.77
2018-11-21T17:07:17.360Z,23.87
2018-11-21T17:09:46.162Z,26.33
2018-11-21T17:12:15.118Z,25.13
2018-11-21T17:14:44.008Z,24.57
2018-11-21T17:17:12.923Z,25.50
2018-11-21T17:19:41.496Z,23.90
2018-11-21T17:22:09.756Z,27.20
2018-11-21T17:24:38.398Z,23.73
2018-11-21T17:27:06.979Z,27.23
2018-11-21T17:29:35.451Z,24.83
2018-11-21T17:32:04.325Z,28.00
2018-11-21T17:34:32.910Z,28.30
2018-11-21T17:37:01.641Z,26.97
2018-11-21T17:39:29.795Z,25.63
2018-11-21T17:41:58.100Z,24.77
2018-11-21T17:44:26.535Z,33.20
2018-11-21T17:46:55.152Z,29.60
2018-11-21T17:49:23.616Z,24.37
2018-11-21T17:51:54.295Z,25.37
2018-11-21T17:54:22.719Z,24.13
2018-11-21T17:56:50.994Z,23.73
2018-11-21T17:59:19.479Z,24.97
2018-11-21T18:01:48.068Z,24.70
2018-11-21T18:04:16.334Z,24.27
2018-11-21T18:06:44.617Z,27.03
2018-11-21T18:09:13.642Z,26.13
2018-11-21T18:11:42.184Z,25.40
2018-11-21T18:14:10.412Z,25.00
2018-11-21T18:16:38.680Z,24.13
2018-11-21T18:19:07.183Z,23.83
2018-11-21T18:21:35.397Z,24.97
2018-11-21T18:24:03.732Z,23.73
2018-11-21T18:26:32.209Z,25.73
2018-11-21T18:29:00.473Z,23.50
2018-11-21T18:31:29.284Z,24.10
2018-11-21T18:33:57.669Z,23.60
2018-11-21T18:36:25.929Z,25.80
2018-11-21T18:38:54.261Z,24.93
2018-11-21T18:41:22.485Z,25.03
2018-11-21T18:43:51.026Z,24.27
2018-11-21T18:46:19.767Z,23.23
2018-11-21T18:48:48.448Z,23.37
2018-11-21T18:51:16.871Z,27.27
2018-11-21T18:53:45.205Z,22.80
2018-11-21T18:56:37.784Z,25.43
2018-11-21T18:59:33.343Z,25.50
2018-11-21T19:02:01.480Z,24.63
2018-11-21T19:04:29.851Z,24.27
2018-11-21T19:06:58.030Z,24.13
2018-11-21T19:09:26.248Z,24.97
2018-11-21T19:11:54.571Z,23.43
2018-11-21T19:14:24.469Z,24.80
2018-11-21T19:16:53.044Z,24.40
2018-11-21T19:19:21.423Z,25.70
2018-11-21T19:21:49.907Z,24.80
2018-11-21T19:24:18.400Z,25.03
2018-11-21T19:26:46.884Z,35.83
2018-11-21T19:29:15.147Z,37.83
2018-11-21T19:31:43.613Z,30.83
2018-11-21T19:34:12.411Z,25.60
2018-11-21T19:36:40.826Z,25.10
2018-11-21T19:39:14.639Z,24.53
2018-11-21T19:41:43.059Z,29.03
2018-11-21T19:44:11.770Z,29.93
2018-11-21T19:46:40.465Z,26.90
2018-11-21T19:49:08.843Z,25.00
2018-11-21T19:51:44.456Z,24.40
2018-11-21T19:54:12.627Z,24.97
2018-11-21T19:56:41.026Z,24.90
2018-11-21T19:59:09.420Z,23.10
2018-11-21T20:01:37.908Z,25.03
2018-11-21T20:04:06.125Z,24.97
2018-11-21T20:06:34.606Z,27.60
2018-11-21T20:09:02.846Z,23.50
2018-11-21T20:11:31.215Z,24.37
2018-11-21T20:13:59.721Z,26.53
2018-11-21T20:16:28.231Z,24.77
2018-11-21T20:18:56.686Z,25.33
2018-11-21T20:21:27.389Z,31.23
2018-11-21T20:23:55.892Z,59.53
2018-11-21T20:26:24.264Z,19.97
2018-11-21T20:28:52.807Z,20.83
2018-11-21T20:31:21.284Z,12.03
2018-11-21T20:33:50.180Z,10.50
2018-11-21T20:36:18.387Z,13.80
2018-11-21T20:38:46.593Z,13.03
2018-11-21T20:41:14.882Z,11.07
2018-11-21T20:43:43.546Z,11.63
2018-11-21T20:46:12.069Z,11.87
2018-11-21T20:48:41.094Z,10.93
2018-11-21T20:51:09.341Z,10.43
2018-11-21T20:53:38.410Z,10.30
2018-11-21T20:56:06.769Z,11.37
2018-11-21T20:58:34.982Z,12.17
2018-11-21T21:01:03.552Z,11.20
2018-11-21T21:03:32.208Z,12.17
2018-11-21T21:06:02.123Z,11.60
2018-11-21T21:08:30.583Z,11.53
2018-11-21T21:10:59.051Z,12.37
2018-11-21T21:13:27.854Z,10.17
2018-11-21T21:15:56.572Z,9.73
2018-11-21T21:18:25.513Z,9.73
2018-11-21T21:20:54.542Z,9.63
2018-11-21T21:23:23.548Z,8.77
2018-11-21T21:25:52.155Z,9.27
2018-11-21T21:28:20.682Z,9.47
2018-11-21T21:30:49.278Z,10.50
2018-11-21T21:33:17.865Z,9.13
2018-11-21T21:35:46.656Z,8.87
2018-11-21T21:38:14.940Z,9.27
2018-11-21T21:40:43.396Z,10.10
2018-11-21T21:43:12.059Z,10.33
2018-11-21T21:45:41.003Z,10.67
2018-11-21T21:48:09.234Z,11.30
2018-11-21T21:50:38.081Z,10.87
2018-11-21T21:53:06.291Z,9.70
2018-11-21T21:55:34.610Z,10.53
2018-11-21T21:58:03.699Z,10.30
2018-11-21T22:00:32.205Z,8.97
2018-11-21T22:03:01.313Z,8.57
2018-11-21T22:05:29.930Z,7.30
2018-11-21T22:07:58.470Z,7.37
2018-11-21T22:10:28.644Z,7.60
2018-11-21T22:12:58.879Z,7.50
2018-11-21T22:15:28.339Z,7.87
2018-11-21T22:17:58.356Z,8.80
2018-11-21T22:20:26.551Z,8.27
2018-11-21T22:22:56.843Z,8.57
2018-11-21T22:25:25.672Z,8.43
2018-11-21T22:27:54.246Z,9.27
2018-11-21T22:30:23.752Z,9.80
2018-11-21T22:32:55.478Z,9.57
2018-11-21T22:35:25.742Z,8.57
2018-11-21T22:37:56.441Z,8.30
2018-11-21T22:40:24.771Z,7.70
2018-11-21T22:42:53.861Z,8.20
2018-11-21T22:45:22.844Z,8.00
2018-11-21T22:47:51.523Z,8.33
2018-11-21T22:50:24.234Z,8.00
2018-11-21T22:52:53.043Z,8.00
2018-11-21T22:55:22.230Z,7.70
2018-11-21T22:57:51.683Z,8.37
2018-11-21T23:00:39.443Z,8.03
2018-11-21T23:03:08.079Z,7.83
2018-11-21T23:05:37.700Z,8.70
2018-11-21T23:08:05.765Z,9.33
2018-11-21T23:10:34.653Z,9.53
2018-11-21T23:13:03.305Z,9.07
2018-11-21T23:15:31.526Z,8.93
2018-11-21T23:18:00.105Z,9.00
2018-11-21T23:20:28.964Z,8.67
2018-11-21T23:22:57.523Z,8.63
2018-11-21T23:25:26.028Z,8.13
2018-11-21T23:27:54.954Z,8.63
2018-11-21T23:30:23.931Z,8.00
2018-11-21T23:32:52.241Z,7.50
2018-11-21T23:35:21.338Z,7.13
2018-11-21T23:37:49.961Z,7.93
2018-11-21T23:40:18.557Z,8.00
2018-11-21T23:42:48.776Z,7.37
2018-11-21T23:45:20.121Z,8.43
2018-11-21T23:47:48.889Z,9.03
2018-11-21T23:50:18.681Z,7.87
2018-11-21T23:52:47.345Z,7.70
2018-11-21T23:55:18.058Z,7.13
2018-11-21T23:57:46.531Z,7.67
